Time;durP1;ratioP1;P1;durP2;ratioP2;P2;SDS_P1;SDS_P2;PMS_P1;PMS_P2;Temp;Humidity;BMP_temperature;BMP_pressure;BME280_temperature;BME280_humidity;BME280_pressure;Samples;Min_cycle;Max_cycle;Signal;HPM_P1;HPM_P2
2022/02/27 00:00:17;;;;;;;27.20;24.60;;;0.90;99.90;;;;;;5009557;28;20464;-72
2022/02/27 00:02:44;;;;;;;33.23;22.50;;;0.90;99.90;;;;;;5036776;28;21190;-72
2022/02/27 00:05:11;;;;;;;25.30;23.00;;;0.90;99.90;;;;;;5040909;28;20468;-69
2022/02/27 00:07:38;;;;;;;33.90;24.40;;;0.90;99.90;;;;;;5034731;28;20550;-69
2022/02/27 00:10:06;;;;;;;26.70;24.30;;;0.90;99.90;;;;;;5046470;28;20549;-70
2022/02/27 00:12:33;;;;;;;29.30;26.40;;;0.90;99.90;;;;;;5041182;28;20467;-71
2022/02/27 00:15:00;;;;;;;25.80;23.03;;;0.90;99.90;;;;;;5040293;28;20465;-70
2022/02/27 00:17:28;;;;;;;25.60;23.30;;;0.80;99.90;;;;;;5041939;28;20471;-72
2022/02/27 00:19:55;;;;;;;26.93;24.33;;;0.70;99.90;;;;;;5033864;28;20576;-70
2022/02/27 00:22:22;;;;;;;26.37;24.07;;;0.60;99.90;;;;;;5039604;28;20505;-70
2022/02/27 00:24:49;;;;;;;28.90;26.00;;;0.70;99.90;;;;;;5041162;28;20465;-69
2022/02/27 00:27:17;;;;;;;27.20;24.30;;;0.70;99.90;;;;;;5035748;28;20904;-72
2022/02/27 00:29:44;;;;;;;27.13;24.43;;;0.60;99.90;;;;;;5038498;28;20465;-69
2022/02/27 00:32:10;;;;;;;27.43;25.00;;;0.80;99.90;;;;;;5034913;28;20495;-70
2022/02/27 00:34:39;;;;;;;42.77;24.40;;;0.70;99.90;;;;;;5035529;28;20459;-69
2022/02/27 00:37:06;;;;;;;44.80;25.70;;;0.60;99.90;;;;;;5038124;28;20474;-70
2022/02/27 00:39:32;;;;;;;26.70;24.23;;;0.60;99.90;;;;;;5041199;28;20999;-71
2022/02/27 00:41:59;;;;;;;32.80;25.10;;;0.60;99.90;;;;;;5035899;28;20475;-72
2022/02/27 00:44:26;;;;;;;28.67;24.57;;;0.60;99.90;;;;;;5040230;28;20469;-71
2022/02/27 00:46:53;;;;;;;30.33;24.93;;;0.50;99.90;;;;;;5039023;28;20474;-71
2022/02/27 00:49:19;;;;;;;27.17;24.40;;;0.50;99.90;;;;;;5038584;28;20544;-71
2022/02/27 00:51:48;;;;;;;26.70;23.97;;;0.50;99.90;;;;;;5039519;28;20865;-70
2022/02/27 00:54:14;;;;;;;38.33;24.70;;;0.60;99.90;;;;;;5034534;28;20475;-72
2022/02/27 00:56:41;;;;;;;33.67;24.63;;;0.60;99.90;;;;;;5037029;28;20474;-69
2022/02/27 00:59:08;;;;;;;27.70;24.10;;;0.60;99.90;;;;;;5040499;28;20462;-69
2022/02/27 01:01:35;;;;;;;28.53;25.17;;;0.60;99.90;;;;;;5037514;28;20478;-71
2022/02/27 01:04:02;;;;;;;30.80;25.97;;;0.60;99.90;;;;;;5046033;28;20462;-71
2022/02/27 01:06:30;;;;;;;30.07;24.17;;;0.50;99.90;;;;;;5033481;28;20477;-69
2022/02/27 01:08:59;;;;;;;27.77;25.07;;;0.50;99.90;;;;;;5038335;28;20563;-69
2022/02/27 01:11:26;;;;;;;27.30;24.80;;;0.50;99.90;;;;;;5039123;28;20468;-71
2022/02/27 01:13:53;;;;;;;27.17;24.53;;;0.50;99.90;;;;;;5041726;28;20467;-72
2022/02/27 01:16:20;;;;;;;26.90;24.53;;;0.60;99.90;;;;;;5046513;28;20740;-71
2022/02/27 01:18:46;;;;;;;27.87;25.07;;;0.70;99.90;;;;;;5044398;28;20457;-70
2022/02/27 01:21:15;;;;;;;29.47;25.60;;;0.60;99.90;;;;;;5039415;28;20464;-71
2022/02/27 01:23:42;;;;;;;29.97;24.87;;;0.60;99.90;;;;;;5042898;28;20467;-69
2022/02/27 01:26:10;;;;;;;29.00;26.10;;;0.50;99.90;;;;;;5043251;28;20494;-71
2022/02/27 01:28:37;;;;;;;28.53;24.57;;;0.50;99.90;;;;;;5044046;28;21368;-70
2022/02/27 01:31:04;;;;;;;29.27;26.23;;;0.50;99.90;;;;;;5041037;28;20467;-69
2022/02/27 01:33:31;;;;;;;31.10;24.70;;;0.50;99.90;;;;;;5040741;28;21172;-70
2022/02/27 01:35:58;;;;;;;30.23;24.33;;;0.40;99.90;;;;;;5043689;28;20461;-71
2022/02/27 01:38:25;;;;;;;26.50;23.67;;;0.40;99.90;;;;;;5037029;28;20566;-71
2022/02/27 01:40:53;;;;;;;26.87;23.97;;;0.40;99.90;;;;;;5044885;28;20470;-69
2022/02/27 01:43:21;;;;;;;30.80;25.47;;;0.30;99.90;;;;;;5046794;28;20462;-68
2022/02/27 01:45:48;;;;;;;28.50;24.90;;;0.30;99.90;;;;;;5038990;28;20564;-69
2022/02/27 01:48:16;;;;;;;29.60;25.20;;;0.20;99.90;;;;;;5039991;28;20902;-69
2022/02/27 01:50:43;;;;;;;27.67;25.17;;;0.20;99.90;;;;;;5039035;28;20566;-71
2022/02/27 01:53:10;;;;;;;27.80;25.03;;;0.30;99.90;;;;;;5044676;28;20493;-69
2022/02/27 01:55:37;;;;;;;30.10;25.00;;;0.30;99.90;;;;;;5047630;28;20462;-71
2022/02/27 01:58:03;;;;;;;27.53;24.20;;;0.30;99.90;;;;;;5040686;28;20520;-69
2022/02/27 02:00:32;;;;;;;28.77;24.60;;;0.20;99.90;;;;;;5040309;28;20466;-69
2022/02/27 02:02:59;;;;;;;26.80;24.20;;;0.20;99.90;;;;;;5043271;28;20485;-71
2022/02/27 02:05:26;;;;;;;31.53;26.10;;;0.20;99.90;;;;;;5043685;28;20876;-70
2022/02/27 02:07:52;;;;;;;28.70;25.83;;;0.10;99.90;;;;;;5053769;28;20469;-71
2022/02/27 02:10:19;;;;;;;37.90;27.17;;;0.20;99.90;;;;;;5045605;28;20468;-71
2022/02/27 02:12:46;;;;;;;28.13;25.43;;;0.20;99.90;;;;;;5039956;28;20524;-72
2022/02/27 02:15:13;;;;;;;27.63;24.97;;;0.20;99.90;;;;;;5036927;28;20464;-71
2022/02/27 02:17:41;;;;;;;28.83;25.50;;;0.20;99.90;;;;;;5042307;28;20462;-71
2022/02/27 02:20:10;;;;;;;30.00;27.13;;;0.20;99.90;;;;;;5043129;28;20506;-72
2022/02/27 02:22:37;;;;;;;29.40;26.40;;;0.10;99.90;;;;;;5036368;28;20488;-70
2022/02/27 02:25:06;;;;;;;29.07;26.37;;;0.10;99.90;;;;;;5039720;28;20458;-70
2022/02/27 02:27:33;;;;;;;29.13;26.07;;;0.00;99.90;;;;;;5038113;28;20541;-72
2022/02/27 02:30:00;;;;;;;28.73;25.40;;;0.00;99.90;;;;;;5041968;28;20459;-71
2022/02/27 02:32:28;;;;;;;31.20;25.57;;;0.00;99.90;;;;;;5040181;28;20484;-71
2022/02/27 02:34:55;;;;;;;28.17;25.57;;;0.00;99.90;;;;;;5039959;28;20470;-69
2022/02/27 02:37:23;;;;;;;29.97;25.90;;;0.00;99.90;;;;;;5037052;28;20472;-70
2022/02/27 02:39:52;;;;;;;31.83;25.87;;;0.10;99.90;;;;;;5037960;28;20468;-73
2022/02/27 02:42:19;;;;;;;30.67;25.40;;;0.10;99.90;;;;;;5040002;28;20471;-70
2022/02/27 02:44:46;;;;;;;23.13;20.77;;;0.00;99.90;;;;;;5041242;28;20566;-70
2022/02/27 02:47:13;;;;;;;27.77;21.70;;;-0.10;99.90;;;;;;5045679;28;20559;-73
2022/02/27 02:49:40;;;;;;;23.73;21.20;;;0.00;99.90;;;;;;5037593;28;20482;-72
2022/02/27 02:52:08;;;;;;;21.93;20.33;;;0.00;99.90;;;;;;5035810;28;20466;-72
2022/02/27 02:54:37;;;;;;;22.90;20.47;;;0.00;99.90;;;;;;5040459;28;20470;-72
2022/02/27 02:57:04;;;;;;;22.27;20.53;;;0.00;99.90;;;;;;5038988;28;20486;-71
2022/02/27 02:59:31;;;;;;;25.27;21.17;;;-0.10;99.90;;;;;;5042952;28;21033;-69
2022/02/27 03:01:58;;;;;;;22.87;20.53;;;0.00;99.90;;;;;;5038073;28;20910;-70
2022/02/27 03:04:25;;;;;;;23.30;21.10;;;-0.10;99.90;;;;;;5046935;28;20462;-72
2022/02/27 03:06:52;;;;;;;23.87;21.40;;;-0.20;99.90;;;;;;5037597;28;20476;-72
2022/02/27 03:09:19;;;;;;;22.63;20.10;;;-0.10;99.90;;;;;;5039549;28;20905;-70
2022/02/27 03:11:48;;;;;;;31.13;20.97;;;-0.20;99.90;;;;;;5037054;28;20469;-70
2022/02/27 03:14:15;;;;;;;26.63;20.40;;;-0.20;99.90;;;;;;5036498;28;20497;-71
2022/02/27 03:16:41;;;;;;;29.20;20.50;;;-0.10;99.90;;;;;;5033785;28;20490;-71
2022/02/27 03:19:08;;;;;;;23.93;20.17;;;0.00;99.90;;;;;;5038805;28;20465;-71
2022/02/27 03:21:35;;;;;;;21.40;19.40;;;-0.10;99.90;;;;;;5035265;28;20485;-71
2022/02/27 03:24:02;;;;;;;23.97;19.70;;;-0.20;99.90;;;;;;5039330;28;20506;-72
2022/02/27 03:26:29;;;;;;;23.23;20.67;;;-0.20;99.90;;;;;;5043321;28;20466;-71
2022/02/27 03:28:57;;;;;;;23.83;19.83;;;-0.20;99.90;;;;;;5036353;28;20467;-72
2022/02/27 03:31:24;;;;;;;26.00;20.17;;;-0.20;99.90;;;;;;5033079;28;20476;-72
2022/02/27 03:33:51;;;;;;;22.50;20.17;;;-0.10;99.90;;;;;;5043700;28;20498;-71
2022/02/27 03:38:58;;;;;;;23.40;20.53;;;-0.10;99.90;;;;;;5040188;28;21188;-72
2022/02/27 03:41:25;;;;;;;20.67;18.67;;;-0.10;99.90;;;;;;5041026;28;20832;-71
2022/02/27 03:43:52;;;;;;;21.00;19.07;;;-0.10;99.90;;;;;;5039932;28;20470;-71
2022/02/27 03:46:20;;;;;;;25.03;19.47;;;-0.20;99.90;;;;;;5034659;28;20463;-72
2022/02/27 03:48:47;;;;;;;21.70;19.50;;;-0.20;99.90;;;;;;5038530;28;20488;-71
2022/02/27 03:51:14;;;;;;;30.03;20.00;;;-0.20;99.90;;;;;;5039449;28;20475;-72
2022/02/27 03:53:41;;;;;;;24.17;20.60;;;-0.20;99.90;;;;;;5040339;28;21066;-71
2022/02/27 03:56:07;;;;;;;22.17;20.07;;;-0.20;99.90;;;;;;5039471;28;20845;-72
2022/02/27 03:58:34;;;;;;;23.33;20.87;;;-0.20;99.90;;;;;;5039158;28;20988;-72
2022/02/27 04:01:01;;;;;;;22.87;20.47;;;-0.30;99.90;;;;;;5038947;28;20458;-71
2022/02/27 04:03:29;;;;;;;22.00;19.30;;;-0.20;99.90;;;;;;5042918;28;20859;-72
2022/02/27 04:05:56;;;;;;;22.67;20.43;;;-0.20;99.90;;;;;;5042639;28;20944;-72
2022/02/27 04:08:23;;;;;;;21.33;19.53;;;-0.30;99.90;;;;;;5039794;28;20468;-72
2022/02/27 04:10:50;;;;;;;21.07;18.83;;;-0.30;99.90;;;;;;5043826;28;20830;-73
2022/02/27 04:13:17;;;;;;;23.70;19.37;;;-0.30;99.90;;;;;;5044190;28;21000;-72
2022/02/27 04:15:43;;;;;;;20.13;18.37;;;-0.30;99.90;;;;;;5039865;28;20466;-72
2022/02/27 04:18:10;;;;;;;24.40;20.30;;;-0.30;99.90;;;;;;5037891;28;20515;-72
2022/02/27 04:20:38;;;;;;;26.33;19.13;;;-0.30;99.90;;;;;;5041902;28;20797;-72
2022/02/27 04:23:05;;;;;;;23.47;18.80;;;-0.30;99.90;;;;;;5041787;28;20494;-72
2022/02/27 04:25:32;;;;;;;22.23;20.13;;;-0.40;99.90;;;;;;5039786;28;20462;-72
2022/02/27 04:27:59;;;;;;;22.93;19.27;;;-0.40;99.90;;;;;;5043790;28;20458;-72
2022/02/27 04:30:25;;;;;;;20.93;19.00;;;-0.30;99.90;;;;;;5037907;28;20469;-72
2022/02/27 04:32:52;;;;;;;20.43;18.57;;;-0.30;99.90;;;;;;5039074;28;20477;-72
2022/02/27 04:35:19;;;;;;;23.57;19.53;;;-0.40;99.90;;;;;;5036859;28;20575;-71
2022/02/27 04:37:47;;;;;;;21.57;19.43;;;-0.40;99.90;;;;;;5039225;28;20997;-71
2022/02/27 04:40:15;;;;;;;21.57;19.53;;;-0.40;99.90;;;;;;5041613;28;20801;-71
2022/02/27 04:42:42;;;;;;;23.47;18.83;;;-0.40;99.90;;;;;;5039705;28;21003;-71
2022/02/27 04:45:10;;;;;;;21.30;18.30;;;-0.40;99.90;;;;;;5036619;28;20954;-73
2022/02/27 04:47:37;;;;;;;21.23;19.33;;;-0.40;99.90;;;;;;5039610;28;20470;-71
2022/02/27 04:50:04;;;;;;;20.60;18.70;;;-0.40;99.90;;;;;;5035692;28;20485;-71
2022/02/27 04:52:31;;;;;;;19.50;18.20;;;-0.40;99.90;;;;;;5041605;28;20480;-71
2022/02/27 04:54:59;;;;;;;20.77;18.93;;;-0.40;99.90;;;;;;5044117;28;20464;-72
2022/02/27 04:57:26;;;;;;;22.83;18.93;;;-0.40;99.90;;;;;;5040723;28;20457;-71
2022/02/27 04:59:53;;;;;;;24.90;19.10;;;-0.40;99.90;;;;;;5032418;28;20978;-71
2022/02/27 05:02:19;;;;;;;28.40;18.77;;;-0.40;99.90;;;;;;5019864;28;21059;-72
2022/02/27 05:04:46;;;;;;;21.20;18.70;;;-0.30;99.90;;;;;;5006294;28;20512;-71
2022/02/27 05:07:13;;;;;;;19.43;17.67;;;-0.40;99.90;;;;;;5020268;28;20470;-72
2022/02/27 05:09:40;;;;;;;21.03;17.73;;;-0.30;99.90;;;;;;5032670;28;20472;-72
2022/02/27 05:12:09;;;;;;;19.40;17.63;;;-0.30;99.90;;;;;;5040364;28;20458;-73
2022/02/27 05:14:37;;;;;;;19.90;17.83;;;-0.20;99.90;;;;;;5033324;28;21132;-71
2022/02/27 05:17:04;;;;;;;20.90;19.00;;;-0.20;99.90;;;;;;5005343;28;20453;-73
2022/02/27 05:19:30;;;;;;;21.50;19.40;;;-0.20;99.90;;;;;;5007270;28;20485;-73
2022/02/27 05:21:57;;;;;;;20.17;18.27;;;-0.20;99.90;;;;;;5006846;28;20509;-74
2022/02/27 05:24:24;;;;;;;20.20;18.40;;;-0.30;99.90;;;;;;5007428;28;21001;-71
2022/02/27 05:26:51;;;;;;;24.53;19.10;;;-0.20;99.90;;;;;;5006992;28;20594;-72
2022/02/27 05:29:19;;;;;;;22.00;18.40;;;-0.30;99.90;;;;;;5006782;28;20481;-72
2022/02/27 05:31:46;;;;;;;28.43;20.20;;;-0.30;99.90;;;;;;5008571;28;20468;-72
2022/02/27 05:34:13;;;;;;;24.03;19.43;;;-0.20;99.90;;;;;;5007435;28;20632;-71
2022/02/27 05:36:40;;;;;;;33.77;19.80;;;-0.20;99.90;;;;;;5007980;28;21039;-73
2022/02/27 05:39:08;;;;;;;21.43;18.73;;;-0.20;99.90;;;;;;5007983;28;20492;-75
2022/02/27 05:41:36;;;;;;;19.70;18.10;;;-0.20;99.90;;;;;;5008217;28;22361;-73
2022/02/27 05:44:03;;;;;;;19.23;17.93;;;-0.20;99.90;;;;;;5006682;28;20967;-74
2022/02/27 05:46:31;;;;;;;21.20;19.00;;;-0.10;99.90;;;;;;5007947;28;20475;-72
2022/02/27 05:48:57;;;;;;;19.57;17.77;;;-0.10;99.90;;;;;;5006566;28;20497;-74
2022/02/27 05:51:24;;;;;;;28.37;19.90;;;-0.10;99.90;;;;;;5007324;28;20476;-72
2022/02/27 05:53:51;;;;;;;20.53;18.43;;;-0.10;99.90;;;;;;5007083;28;21086;-72
2022/02/27 05:56:18;;;;;;;22.73;18.03;;;-0.10;99.90;;;;;;5009350;28;21394;-75
2022/02/27 05:58:45;;;;;;;23.03;19.00;;;-0.10;99.90;;;;;;5010984;28;20470;-71
2022/02/27 06:01:12;;;;;;;26.37;19.20;;;-0.10;99.90;;;;;;5009974;28;20980;-73
2022/02/27 06:03:40;;;;;;;30.13;18.33;;;-0.10;99.90;;;;;;5011603;28;20481;-74
2022/02/27 06:06:07;;;;;;;20.10;18.17;;;-0.10;99.90;;;;;;5011843;28;20480;-73
2022/02/27 06:08:34;;;;;;;20.97;18.83;;;-0.10;99.90;;;;;;5009449;28;20462;-72
2022/02/27 06:11:01;;;;;;;20.83;18.20;;;-0.10;99.90;;;;;;5025022;28;20469;-71
2022/02/27 06:13:28;;;;;;;25.63;19.90;;;-0.10;99.90;;;;;;5043716;28;20494;-74
2022/02/27 06:15:55;;;;;;;26.50;18.93;;;-0.10;99.90;;;;;;5011033;28;23326;-74
2022/02/27 06:18:22;;;;;;;19.83;17.80;;;-0.10;99.90;;;;;;5010892;28;20477;-73
2022/02/27 06:20:50;;;;;;;27.20;18.23;;;-0.10;99.90;;;;;;5011267;28;21190;-72
2022/02/27 06:23:17;;;;;;;21.97;19.80;;;-0.10;99.90;;;;;;5010057;28;20487;-73
2022/02/27 06:25:44;;;;;;;21.70;18.90;;;-0.10;99.90;;;;;;5010622;28;20476;-72
2022/02/27 06:28:11;;;;;;;22.70;18.87;;;-0.10;99.90;;;;;;5010940;28;20456;-72
2022/02/27 06:30:37;;;;;;;20.90;19.20;;;0.00;99.90;;;;;;5008650;28;20472;-73
2022/02/27 06:33:04;;;;;;;27.80;20.20;;;-0.10;99.90;;;;;;5010504;28;20480;-74
2022/02/27 06:35:31;;;;;;;20.47;18.70;;;-0.20;99.90;;;;;;5026592;28;20570;-74
2022/02/27 06:37:59;;;;;;;21.63;19.00;;;-0.20;99.90;;;;;;5037019;28;20457;-74
2022/02/27 06:40:26;;;;;;;21.27;18.13;;;-0.20;99.90;;;;;;5036517;28;20962;-74
2022/02/27 06:42:53;;;;;;;20.03;18.23;;;-0.20;99.90;;;;;;5010388;28;21182;-72
2022/02/27 06:45:20;;;;;;;21.30;19.10;;;0.00;99.90;;;;;;5009458;28;20472;-72
2022/02/27 06:47:47;;;;;;;21.10;19.47;;;0.00;99.90;;;;;;5009705;28;20505;-72
2022/02/27 06:50:14;;;;;;;21.20;19.43;;;0.00;99.90;;;;;;5006877;28;20470;-73
2022/02/27 06:52:41;;;;;;;21.60;19.40;;;0.10;99.90;;;;;;5008963;28;20469;-72
2022/02/27 06:55:10;;;;;;;24.97;20.40;;;0.10;99.90;;;;;;5009079;28;20500;-75
2022/02/27 06:57:37;;;;;;;20.77;18.90;;;0.00;99.90;;;;;;5009153;28;20465;-72
2022/02/27 07:00:06;;;;;;;22.77;19.10;;;0.00;99.90;;;;;;5009898;28;20464;-73
2022/02/27 07:02:32;;;;;;;24.90;19.53;;;0.00;99.90;;;;;;5009744;28;20476;-73
2022/02/27 07:04:59;;;;;;;21.97;19.67;;;0.00;99.90;;;;;;5009076;28;20481;-71
2022/02/27 07:07:26;;;;;;;22.27;20.10;;;0.00;99.90;;;;;;5008494;28;20476;-73
2022/02/27 07:09:53;;;;;;;22.47;20.43;;;0.00;99.90;;;;;;5008939;28;21470;-73
2022/02/27 07:12:22;;;;;;;22.40;20.00;;;0.10;99.90;;;;;;5008136;28;20887;-73
2022/02/27 07:14:49;;;;;;;21.17;19.57;;;0.10;99.90;;;;;;5009275;28;21155;-71
2022/02/27 07:17:15;;;;;;;24.53;20.63;;;0.20;99.90;;;;;;5008016;28;20831;-72
2022/02/27 07:19:42;;;;;;;22.20;20.20;;;0.30;99.90;;;;;;5008809;28;20987;-72
2022/02/27 07:22:09;;;;;;;22.13;19.77;;;0.40;99.90;;;;;;5009330;28;21301;-74
2022/02/27 07:24:36;;;;;;;27.00;19.90;;;0.40;99.90;;;;;;5008584;28;20496;-73
2022/02/27 07:27:03;;;;;;;22.67;20.30;;;0.50;99.90;;;;;;5007857;28;20976;-73
2022/02/27 07:29:31;;;;;;;21.67;19.70;;;0.50;99.90;;;;;;5007875;28;20476;-74
2022/02/27 07:31:58;;;;;;;22.50;20.57;;;0.50;99.90;;;;;;5008904;28;21013;-71
2022/02/27 07:34:25;;;;;;;22.90;20.73;;;0.60;99.90;;;;;;5008384;28;21034;-72
2022/02/27 07:36:54;;;;;;;23.47;20.97;;;0.70;99.90;;;;;;5008253;28;20466;-73
2022/02/27 07:39:22;;;;;;;23.03;21.23;;;0.70;99.90;;;;;;5007452;28;20565;-72
2022/02/27 07:41:48;;;;;;;26.33;20.63;;;0.80;99.90;;;;;;5007458;28;20473;-73
2022/02/27 07:44:16;;;;;;;23.87;21.43;;;0.90;99.90;;;;;;5005723;28;20892;-71
2022/02/27 07:46:44;;;;;;;25.10;22.50;;;1.00;99.90;;;;;;5007638;28;20499;-73
2022/02/27 07:49:11;;;;;;;26.93;23.20;;;1.10;99.90;;;;;;5006349;28;20573;-73
2022/02/27 07:51:38;;;;;;;24.40;22.63;;;1.20;99.90;;;;;;5006618;28;20442;-72
2022/02/27 07:54:05;;;;;;;25.10;22.60;;;1.20;99.90;;;;;;5007703;28;21564;-74
2022/02/27 07:56:32;;;;;;;27.13;24.93;;;1.30;99.90;;;;;;5006005;28;20463;-74
2022/02/27 07:58:59;;;;;;;26.40;23.90;;;1.40;99.90;;;;;;5004838;28;20964;-73
2022/02/27 08:01:26;;;;;;;26.50;23.87;;;1.40;99.90;;;;;;5005834;28;20961;-73
2022/02/27 08:03:54;;;;;;;26.50;24.50;;;1.50;99.90;;;;;;5006937;28;20833;-74
2022/02/27 08:06:21;;;;;;;26.60;24.50;;;1.60;99.90;;;;;;5006507;28;20476;-73
2022/02/27 08:08:48;;;;;;;27.20;24.70;;;1.70;99.90;;;;;;5007722;28;20493;-74
2022/02/27 08:11:15;;;;;;;26.83;24.53;;;1.80;99.90;;;;;;5008181;28;20563;-74
2022/02/27 08:13:43;;;;;;;27.33;24.10;;;1.90;99.90;;;;;;5005923;28;20462;-73
2022/02/27 08:16:09;;;;;;;28.47;24.63;;;2.00;99.90;;;;;;5005804;28;20452;-74
2022/02/27 08:18:36;;;;;;;26.17;23.40;;;2.10;99.90;;;;;;5007520;28;20472;-73
2022/02/27 08:21:05;;;;;;;27.20;24.53;;;2.20;99.90;;;;;;5004827;28;20464;-74
2022/02/27 08:23:32;;;;;;;26.03;24.00;;;2.30;99.90;;;;;;5006789;28;20499;-74
2022/02/27 08:25:59;;;;;;;27.40;25.30;;;2.40;99.90;;;;;;5007833;28;20457;-73
2022/02/27 08:28:27;;;;;;;26.83;24.50;;;2.40;99.90;;;;;;5008349;28;20467;-72
2022/02/27 08:30:54;;;;;;;26.97;24.70;;;2.60;99.90;;;;;;5007501;28;20468;-73
2022/02/27 08:33:21;;;;;;;27.13;24.53;;;2.70;99.90;;;;;;5006445;28;20936;-72
2022/02/27 08:35:47;;;;;;;27.63;25.27;;;2.80;99.90;;;;;;5007690;28;20503;-73
2022/02/27 08:38:16;;;;;;;27.37;24.30;;;2.90;99.90;;;;;;5007752;28;20550;-73
2022/02/27 08:40:42;;;;;;;25.57;23.67;;;3.00;99.90;;;;;;5003888;28;21151;-70
2022/02/27 08:43:09;;;;;;;27.17;24.83;;;3.10;99.90;;;;;;5006734;28;20460;-72
2022/02/27 08:45:37;;;;;;;26.43;24.40;;;3.20;99.90;;;;;;5006902;28;20461;-71
2022/02/27 08:48:04;;;;;;;27.33;24.83;;;3.30;99.90;;;;;;5006854;28;20490;-72
2022/02/27 08:50:31;;;;;;;26.47;24.17;;;3.30;99.90;;;;;;5005583;28;20467;-72
2022/02/27 08:52:57;;;;;;;26.97;24.13;;;3.40;99.90;;;;;;5006165;28;20986;-69
2022/02/27 08:55:25;;;;;;;28.07;25.00;;;3.50;99.90;;;;;;5005958;28;20499;-69
2022/02/27 08:57:52;;;;;;;27.27;24.73;;;3.60;99.90;;;;;;5002751;28;20457;-71
2022/02/27 09:00:19;;;;;;;26.80;24.67;;;3.80;99.90;;;;;;5003170;28;20469;-72
2022/02/27 09:02:48;;;;;;;28.30;25.83;;;3.90;99.90;;;;;;5004476;28;20476;-73
2022/02/27 09:05:15;;;;;;;26.20;24.30;;;4.00;99.90;;;;;;5005919;28;20498;-69
2022/02/27 09:07:42;;;;;;;28.27;25.63;;;4.00;99.90;;;;;;5005253;28;20469;-71
2022/02/27 09:10:12;;;;;;;27.73;25.60;;;4.10;99.90;;;;;;5006639;28;20480;-71
2022/02/27 09:12:41;;;;;;;26.23;24.33;;;4.20;99.90;;;;;;5005909;28;21054;-71
2022/02/27 09:15:09;;;;;;;27.23;24.80;;;4.30;99.90;;;;;;5004070;28;20553;-73
2022/02/27 09:17:36;;;;;;;25.60;23.60;;;4.50;99.90;;;;;;5030710;28;20454;-72
2022/02/27 09:20:03;;;;;;;26.23;24.13;;;4.50;99.90;;;;;;5010255;28;20472;-73
2022/02/27 09:22:30;;;;;;;26.13;23.83;;;4.60;99.90;;;;;;5006214;28;21154;-70
2022/02/27 09:24:57;;;;;;;25.63;23.40;;;4.70;99.90;;;;;;5006303;28;20475;-71
2022/02/27 09:27:24;;;;;;;26.63;24.60;;;4.80;99.90;;;;;;5006658;28;21061;-71
2022/02/27 09:29:53;;;;;;;25.67;23.77;;;5.00;99.90;;;;;;5007773;28;20845;-72
2022/02/27 09:32:20;;;;;;;25.47;23.20;;;5.10;99.90;;;;;;5008145;28;20570;-73
2022/02/27 09:34:47;;;;;;;26.57;24.20;;;5.30;99.90;;;;;;5010992;28;20496;-71
2022/02/27 09:37:14;;;;;;;24.60;22.60;;;5.40;99.90;;;;;;5010635;28;20926;-73
2022/02/27 09:39:41;;;;;;;23.97;21.97;;;5.50;99.90;;;;;;5011393;28;20473;-74
2022/02/27 09:42:07;;;;;;;23.97;22.07;;;5.60;99.90;;;;;;5009777;28;21017;-72
2022/02/27 09:44:39;;;;;;;23.00;21.33;;;5.80;99.90;;;;;;5011348;28;20464;-73
2022/02/27 09:47:08;;;;;;;22.27;20.23;;;6.00;99.90;;;;;;5011125;28;20530;-72
2022/02/27 09:49:36;;;;;;;20.83;19.20;;;5.80;99.90;;;;;;5010510;28;20639;-72
2022/02/27 09:52:04;;;;;;;24.07;20.10;;;6.00;99.90;;;;;;5010241;28;20471;-72
2022/02/27 09:54:34;;;;;;;20.80;18.60;;;6.10;99.90;;;;;;5010699;28;20511;-72
2022/02/27 09:57:00;;;;;;;20.00;18.07;;;6.20;99.90;;;;;;5010692;28;20544;-72
2022/02/27 09:59:27;;;;;;;19.40;18.00;;;6.20;99.90;;;;;;5009465;28;20457;-74
2022/02/27 10:01:59;;;;;;;19.53;17.93;;;6.40;99.90;;;;;;5010039;28;20468;-71
2022/02/27 10:04:33;;;;;;;19.33;17.87;;;6.50;99.90;;;;;;5010728;28;20473;-71
2022/02/27 10:07:00;;;;;;;21.07;18.03;;;6.60;99.90;;;;;;5009935;28;20463;-71
2022/02/27 10:09:27;;;;;;;18.03;16.80;;;6.70;99.90;;;;;;5009824;28;20456;-72
2022/02/27 10:11:54;;;;;;;20.13;18.33;;;6.80;99.90;;;;;;5009989;28;20459;-71
2022/02/27 10:14:28;;;;;;;19.80;18.00;;;6.80;99.90;;;;;;5009544;28;20466;-72
2022/02/27 10:17:03;;;;;;;19.80;17.37;;;7.00;99.90;;;;;;5009906;28;20953;-74
2022/02/27 10:19:35;;;;;;;22.70;17.07;;;7.20;99.90;;;;;;5009795;28;20460;-72
2022/02/27 10:22:02;;;;;;;19.03;17.40;;;7.40;99.90;;;;;;5010046;28;20565;-72
2022/02/27 10:24:29;;;;;;;18.23;16.60;;;7.60;99.90;;;;;;5010508;28;20483;-72
2022/02/27 10:26:56;;;;;;;25.27;16.87;;;7.90;99.90;;;;;;5010296;28;20549;-71
2022/02/27 10:29:24;;;;;;;21.60;17.63;;;8.20;99.90;;;;;;5009426;28;20559;-70
2022/02/27 10:31:52;;;;;;;18.00;16.40;;;8.50;99.90;;;;;;5009289;28;20462;-72
2022/02/27 10:34:21;;;;;;;17.67;16.00;;;9.10;99.90;;;;;;5009768;28;20460;-71
2022/02/27 10:36:55;;;;;;;17.47;16.17;;;9.40;99.90;;;;;;5010322;28;20947;-71
2022/02/27 10:39:38;;;;;;;17.97;16.17;;;9.90;99.90;;;;;;5009498;28;20461;-71
2022/02/27 10:42:15;;;;;;;18.50;16.87;;;10.20;99.90;;;;;;5010007;28;20562;-71
2022/02/27 10:44:44;;;;;;;17.87;16.47;;;10.50;99.90;;;;;;5008979;28;20993;-72
2022/02/27 10:47:17;;;;;;;17.30;16.20;;;10.70;99.90;;;;;;5009432;28;21025;-71
2022/02/27 10:49:45;;;;;;;18.13;16.47;;;11.50;99.90;;;;;;5010122;28;20491;-71
2022/02/27 10:52:24;;;;;;;17.37;16.17;;;11.30;99.90;;;;;;5008776;28;20496;-70
2022/02/27 10:54:53;;;;;;;25.10;15.70;;;11.70;99.90;;;;;;5006298;28;20506;-71
2022/02/27 10:57:34;;;;;;;22.37;15.90;;;11.40;99.90;;;;;;5006375;28;20900;-73
2022/02/27 11:00:13;;;;;;;17.47;15.97;;;11.60;99.90;;;;;;5009293;28;20746;-70
2022/02/27 11:02:40;;;;;;;17.57;16.27;;;11.80;99.90;;;;;;5024296;28;20869;-72
2022/02/27 11:05:10;;;;;;;18.83;17.00;;;11.30;99.90;;;;;;5031706;28;21362;-71
2022/02/27 11:07:40;;;;;;;17.90;16.40;;;11.70;99.90;;;;;;5020573;28;20464;-72
2022/02/27 11:10:08;;;;;;;18.00;16.23;;;12.10;99.90;;;;;;5033415;28;20452;-71
2022/02/27 11:12:36;;;;;;;23.37;17.57;;;11.90;99.70;;;;;;5037644;28;20472;-71
2022/02/27 11:15:04;;;;;;;17.70;16.00;;;11.90;99.60;;;;;;5020353;28;20948;-72
2022/02/27 11:17:32;;;;;;;17.43;15.70;;;12.10;99.60;;;;;;5008858;28;21038;-71
2022/02/27 11:20:01;;;;;;;17.83;16.30;;;12.10;99.70;;;;;;5008959;28;20465;-72
2022/02/27 11:22:29;;;;;;;19.00;17.10;;;12.40;98.80;;;;;;5009412;28;20510;-72
2022/02/27 11:24:59;;;;;;;21.67;16.80;;;12.80;98.60;;;;;;5009146;28;20468;-71
2022/02/27 11:27:28;;;;;;;17.67;16.10;;;12.90;98.70;;;;;;5008815;28;20473;-74
2022/02/27 11:29:56;;;;;;;17.00;15.70;;;12.70;97.00;;;;;;5009307;28;20467;-72
2022/02/27 11:32:24;;;;;;;18.13;16.70;;;12.70;96.60;;;;;;5007327;28;20472;-72
2022/02/27 11:34:51;;;;;;;21.67;17.07;;;13.10;96.80;;;;;;5008102;28;20456;-72
2022/02/27 11:37:50;;;;;;;22.73;16.57;;;13.20;96.10;;;;;;5039261;28;20464;-72
2022/02/27 11:40:29;;;;;;;17.97;16.20;;;13.00;96.00;;;;;;5035321;28;20464;-74
2022/02/27 11:42:58;;;;;;;18.20;16.70;;;13.30;95.40;;;;;;5008094;28;20534;-72
2022/02/27 11:45:57;;;;;;;19.40;16.60;;;12.90;94.40;;;;;;5008243;28;20467;-74
2022/02/27 11:48:56;;;;;;;18.03;16.20;;;12.90;94.10;;;;;;5023834;28;20484;-74
2022/02/27 11:51:52;;;;;;;18.93;16.13;;;12.80;93.40;;;;;;5008390;28;20518;-72
2022/02/27 11:54:22;;;;;;;18.00;16.17;;;12.90;92.90;;;;;;5006471;28;20457;-73
2022/02/27 11:57:10;;;;;;;17.87;16.17;;;12.80;94.20;;;;;;5008287;28;21194;-72
2022/02/27 12:02:48;;;;;;;17.60;16.10;;;13.00;91.80;;;;;;5008936;28;20542;-72
2022/02/27 12:05:18;;;;;;;34.33;15.60;;;13.10;92.10;;;;;;5007485;28;21033;-70
2022/02/27 12:08:06;;;;;;;20.53;18.13;;;13.00;91.60;;;;;;5007913;28;21036;-71
2022/02/27 12:10:35;;;;;;;18.57;16.23;;;12.80;91.70;;;;;;5007748;28;20476;-70
2022/02/27 12:13:04;;;;;;;30.73;16.50;;;12.70;91.50;;;;;;5007349;28;20554;-71
2022/02/27 12:15:33;;;;;;;20.83;16.07;;;12.80;91.80;;;;;;5020116;28;20545;-73
2022/02/27 12:18:05;;;;;;;48.50;18.77;;;12.50;90.90;;;;;;5041390;28;20825;-70
2022/02/27 12:20:47;;;;;;;29.27;16.40;;;12.60;91.10;;;;;;5042398;28;20571;-72
2022/02/27 12:23:47;;;;;;;26.53;15.83;;;13.00;90.60;;;;;;5041837;28;20487;-70
2022/02/27 12:26:53;;;;;;;34.83;16.90;;;12.80;91.20;;;;;;5007749;28;20475;-71
2022/02/27 12:29:36;;;;;;;33.03;15.60;;;12.90;90.60;;;;;;5007949;28;20471;-70
2022/02/27 12:32:10;;;;;;;17.40;15.70;;;13.00;90.60;;;;;;5002389;28;20848;-71
2022/02/27 12:34:38;;;;;;;19.37;16.23;;;13.00;91.60;;;;;;4999238;28;20472;-72
2022/02/27 12:37:06;;;;;;;27.20;17.73;;;13.50;92.20;;;;;;5000622;28;20487;-70
2022/02/27 12:39:37;;;;;;;17.37;15.83;;;13.20;91.70;;;;;;5002866;28;20465;-71
2022/02/27 12:42:05;;;;;;;18.30;16.47;;;13.90;92.90;;;;;;5005389;28;21018;-72
2022/02/27 12:44:36;;;;;;;20.23;18.03;;;14.00;92.00;;;;;;5004676;28;20475;-71